createdAt,value
2022-12-03T00:02:22.359Z,43.17
2022-12-03T00:05:33.912Z,44.03
2022-12-03T00:08:45.564Z,39.17
2022-12-03T00:12:02.020Z,44.73
2022-12-03T00:15:26.863Z,35.47
2022-12-03T00:19:15.188Z,40.88
2022-12-03T00:22:55.716Z,39.58
2022-12-03T00:26:14.654Z,44.45
2022-12-03T00:29:35.983Z,38.80
2022-12-03T00:32:44.107Z,43.33
2022-12-03T00:36:09.419Z,42.22
2022-12-03T00:39:32.251Z,40.42
2022-12-03T00:42:49.394Z,43.35
2022-12-03T00:46:22.120Z,44.23
2022-12-03T00:49:38.521Z,43.90
2022-12-03T00:53:01.588Z,43.45
2022-12-03T00:56:28.616Z,45.40
2022-12-03T00:59:59.917Z,49.20
2022-12-03T01:03:07.023Z,45.43
2022-12-03T01:06:18.899Z,49.15
2022-12-03T01:09:24.702Z,48.28
2022-12-03T01:12:38.620Z,49.47
2022-12-03T01:16:04.853Z,45.15
2022-12-03T01:19:25.068Z,43.47
2022-12-03T01:22:48.049Z,47.33
2022-12-03T01:26:10.041Z,52.95
2022-12-03T01:29:27.901Z,42.15
2022-12-03T01:32:50.960Z,49.00
2022-12-03T01:39:38.140Z,47.53
2022-12-03T01:42:48.955Z,47.85
2022-12-03T01:46:16.027Z,44.72
2022-12-03T01:50:00.124Z,50.45
2022-12-03T01:53:15.676Z,48.43
2022-12-03T01:56:30.671Z,41.78
2022-12-03T01:59:40.030Z,41.80
2022-12-03T02:02:45.570Z,48.13
2022-12-03T02:05:55.403Z,46.25
2022-12-03T02:09:10.674Z,47.87
2022-12-03T02:12:32.777Z,43.83
2022-12-03T02:15:53.592Z,43.72
2022-12-03T02:19:15.594Z,45.55
2022-12-03T02:22:38.628Z,42.13
2022-12-03T02:25:50.772Z,45.33
2022-12-03T02:28:57.524Z,42.50
2022-12-03T02:32:02.754Z,49.00
2022-12-03T02:35:21.201Z,43.10
2022-12-03T02:38:27.071Z,42.50
2022-12-03T02:42:05.471Z,46.20
2022-12-03T02:45:25.403Z,46.17
2022-12-03T02:48:40.988Z,48.30
2022-12-03T02:51:56.956Z,43.78
2022-12-03T02:55:30.712Z,43.78
2022-12-03T02:58:56.014Z,45.30
2022-12-03T03:02:26.988Z,47.38
2022-12-03T03:05:41.825Z,44.65
2022-12-03T03:09:01.185Z,43.42
2022-12-03T03:12:11.963Z,45.28
2022-12-03T03:15:24.579Z,46.23
2022-12-03T03:18:33.704Z,46.53
2022-12-03T03:21:47.701Z,44.92
2022-12-03T03:25:06.108Z,45.67
2022-12-03T03:28:25.668Z,44.65
2022-12-03T03:31:51.774Z,42.50
2022-12-03T03:35:13.923Z,43.30
2022-12-03T03:38:34.870Z,40.33
2022-12-03T03:41:56.911Z,41.78
2022-12-03T03:45:29.138Z,40.78
2022-12-03T03:48:52.514Z,45.43
2022-12-03T03:52:16.219Z,42.40
2022-12-03T03:55:29.699Z,43.20
2022-12-03T03:58:53.785Z,42.53
2022-12-03T04:02:27.289Z,40.58
2022-12-03T04:05:42.464Z,43.20
2022-12-03T04:08:57.772Z,44.35
2022-12-03T04:12:25.792Z,43.58
2022-12-03T04:15:44.793Z,39.95
2022-12-03T04:19:02.828Z,47.17
2022-12-03T04:22:45.558Z,40.27
2022-12-03T04:26:44.277Z,42.38
2022-12-03T04:30:07.450Z,42.25
2022-12-03T04:33:43.087Z,44.28
2022-12-03T04:36:54.148Z,47.13
2022-12-03T04:40:39.443Z,42.07
2022-12-03T04:44:37.635Z,42.05
2022-12-03T04:47:44.187Z,43.45
2022-12-03T04:50:57.505Z,47.45
2022-12-03T04:54:11.902Z,46.03
2022-12-03T04:57:19.244Z,44.73
2022-12-03T05:00:29.523Z,42.33
2022-12-03T05:03:47.436Z,48.80
2022-12-03T05:07:06.687Z,49.67
2022-12-03T05:10:36.972Z,47.65
2022-12-03T05:13:54.322Z,49.73
2022-12-03T05:17:17.251Z,47.53
2022-12-03T05:20:51.465Z,45.10
2022-12-03T05:24:08.908Z,47.95
2022-12-03T05:27:24.192Z,48.28
2022-12-03T05:30:50.399Z,44.90
2022-12-03T05:34:09.319Z,50.22
2022-12-03T05:37:31.591Z,50.08
2022-12-03T05:40:53.686Z,52.50
2022-12-03T05:44:20.812Z,47.63
2022-12-03T05:47:37.244Z,46.67
2022-12-03T05:51:00.395Z,50.20
2022-12-03T05:54:07.694Z,47.95
2022-12-03T05:57:32.314Z,46.70
2022-12-03T06:01:10.606Z,44.70
2022-12-03T06:04:26.383Z,50.30
2022-12-03T06:07:50.637Z,47.80
2022-12-03T06:11:16.415Z,44.63
2022-12-03T06:14:40.431Z,45.97
2022-12-03T06:17:57.537Z,49.92
2022-12-03T06:21:24.047Z,46.57
2022-12-03T06:24:40.253Z,49.80
2022-12-03T06:28:04.539Z,43.55
2022-12-03T06:31:19.341Z,47.85
2022-12-03T06:34:27.805Z,47.10
2022-12-03T06:37:33.995Z,47.87
2022-12-03T06:40:46.126Z,48.50
2022-12-03T06:44:11.317Z,44.72
2022-12-03T06:47:33.254Z,46.58
2022-12-03T06:50:50.839Z,52.40
2022-12-03T06:54:12.807Z,50.73
2022-12-03T06:57:23.786Z,49.38
2022-12-03T07:00:41.907Z,46.95
2022-12-03T07:04:07.265Z,46.28
2022-12-03T07:07:15.514Z,44.60
2022-12-03T07:10:32.228Z,46.63
2022-12-03T07:13:48.994Z,46.60
2022-12-03T07:17:01.574Z,46.92
2022-12-03T07:20:22.358Z,50.67
2022-12-03T07:23:35.649Z,45.10
2022-12-03T07:26:42.635Z,49.43
2022-12-03T07:29:56.548Z,47.78
2022-12-03T07:33:05.685Z,47.92
2022-12-03T07:36:23.937Z,46.63
2022-12-03T07:39:43.242Z,47.38
2022-12-03T07:43:11.746Z,51.40
2022-12-03T07:46:23.210Z,49.35
2022-12-03T07:49:52.922Z,55.00
2022-12-03T07:53:16.914Z,48.70
2022-12-03T07:56:38.990Z,48.15
2022-12-03T08:00:01.302Z,46.47
2022-12-03T08:03:26.519Z,49.58
2022-12-03T08:06:51.521Z,47.17
2022-12-03T08:10:08.366Z,45.33
2022-12-03T08:13:32.010Z,49.95
2022-12-03T08:16:41.145Z,51.97
2022-12-03T08:19:50.930Z,50.40
2022-12-03T08:23:07.011Z,50.85
2022-12-03T08:26:35.331Z,45.67
2022-12-03T08:29:48.193Z,49.40
2022-12-03T08:32:59.943Z,50.57
2022-12-03T08:36:23.950Z,47.35
2022-12-03T08:39:48.610Z,52.55
2022-12-03T08:43:04.299Z,47.38
2022-12-03T08:46:32.129Z,46.22
2022-12-03T08:50:09.954Z,46.20
2022-12-03T08:53:50.104Z,47.80
2022-12-03T08:57:45.485Z,45.67
2022-12-03T09:01:11.895Z,43.53
2022-12-03T09:04:44.851Z,47.05
2022-12-03T09:08:03.957Z,44.17
2022-12-03T09:11:33.774Z,47.13
2022-12-03T09:15:09.450Z,44.40
2022-12-03T09:18:19.625Z,46.35
2022-12-03T09:21:30.585Z,53.17
2022-12-03T09:24:34.403Z,47.40
2022-12-03T09:27:45.020Z,47.58
2022-12-03T09:30:51.838Z,42.33
2022-12-03T09:33:56.591Z,38.97
2022-12-03T09:37:04.260Z,40.33
2022-12-03T09:40:24.552Z,36.80
2022-12-03T09:44:04.036Z,37.65
2022-12-03T09:47:13.027Z,38.95
2022-12-03T09:50:35.040Z,36.92
2022-12-03T09:53:52.760Z,39.03
2022-12-03T09:57:18.677Z,43.77
2022-12-03T10:00:42.698Z,36.47
2022-12-03T10:04:08.183Z,40.03
2022-12-03T10:07:21.194Z,40.58
2022-12-03T10:10:40.267Z,38.67
2022-12-03T10:13:51.812Z,41.30
2022-12-03T10:17:18.580Z,39.78
2022-12-03T10:20:37.885Z,36.65
2022-12-03T10:24:17.827Z,36.45
2022-12-03T10:27:37.895Z,35.88
2022-12-03T10:31:01.725Z,39.20
2022-12-03T10:34:24.873Z,40.85
2022-12-03T10:37:50.071Z,39.08
2022-12-03T10:41:24.094Z,39.60
2022-12-03T10:44:33.850Z,40.25
2022-12-03T10:48:17.858Z,42.63
2022-12-03T10:51:29.298Z,39.25
2022-12-03T10:54:51.588Z,43.50
2022-12-03T10:57:59.920Z,40.80
2022-12-03T11:01:22.827Z,41.30
2022-12-03T11:04:39.807Z,39.60
2022-12-03T11:07:57.050Z,41.13
2022-12-03T11:11:45.057Z,39.20
2022-12-03T11:15:06.843Z,39.75
2022-12-03T11:18:09.918Z,37.08
2022-12-03T11:21:25.485Z,37.27
2022-12-03T11:24:44.767Z,41.38
2022-12-03T11:28:42.533Z,40.47
2022-12-03T11:31:59.931Z,38.20
2022-12-03T11:35:37.470Z,31.83
2022-12-03T11:39:15.480Z,26.23
2022-12-03T11:42:38.323Z,26.60
2022-12-03T11:46:07.420Z,30.77
2022-12-03T11:49:35.720Z,27.77
2022-12-03T11:52:49.741Z,29.33
2022-12-03T11:56:16.771Z,27.43
2022-12-03T11:59:39.810Z,26.05
2022-12-03T12:02:57.497Z,25.33
2022-12-03T12:06:26.930Z,24.42
2022-12-03T12:09:54.806Z,23.85
2022-12-03T12:13:04.173Z,23.80
2022-12-03T12:16:38.830Z,25.30
2022-12-03T12:19:54.644Z,25.55
2022-12-03T12:23:25.437Z,24.60
2022-12-03T12:26:39.445Z,23.67
2022-12-03T12:29:59.313Z,24.83
2022-12-03T12:33:23.605Z,25.55
2022-12-03T12:36:42.360Z,23.25
2022-12-03T12:39:55.206Z,23.90
2022-12-03T12:43:25.155Z,25.77
2022-12-03T12:46:48.884Z,22.53
2022-12-03T12:50:11.346Z,27.88
2022-12-03T12:53:37.463Z,24.42
2022-12-03T12:56:58.968Z,24.50
2022-12-03T13:00:24.584Z,24.50
2022-12-03T13:03:49.596Z,21.23
2022-12-03T13:06:57.168Z,21.05
2022-12-03T13:10:35.277Z,25.23
2022-12-03T13:14:03.959Z,24.70
2022-12-03T13:17:24.792Z,20.75
2022-12-03T13:20:31.640Z,21.73
2022-12-03T13:23:52.358Z,27.60
2022-12-03T13:27:17.369Z,23.95
2022-12-03T13:30:43.554Z,22.88
2022-12-03T13:34:15.482Z,22.38
2022-12-03T13:37:37.116Z,28.60
2022-12-03T13:40:44.995Z,21.35
2022-12-03T13:43:53.419Z,25.35
2022-12-03T13:47:12.213Z,26.50
2022-12-03T13:50:32.282Z,23.65
2022-12-03T13:53:40.601Z,24.77
2022-12-03T13:56:54.363Z,25.35
2022-12-03T14:00:11.107Z,24.08
2022-12-03T14:03:32.746Z,22.13
2022-12-03T14:06:54.914Z,23.83
2022-12-03T14:10:19.045Z,20.93
2022-12-03T14:13:42.079Z,21.50
2022-12-03T14:17:03.234Z,22.60
2022-12-03T14:20:21.908Z,22.20
2022-12-03T14:23:44.007Z,23.00
2022-12-03T14:27:12.145Z,23.30
2022-12-03T14:30:15.177Z,22.13
2022-12-03T14:33:18.940Z,20.58
2022-12-03T14:36:40.450Z,25.15
2022-12-03T14:39:49.427Z,23.08
2022-12-03T14:43:14.201Z,24.23
2022-12-03T14:46:37.879Z,25.25
2022-12-03T14:50:20.990Z,23.38
2022-12-03T14:54:05.303Z,24.95
2022-12-03T14:57:16.982Z,25.17
2022-12-03T15:00:24.022Z,24.33
2022-12-03T15:03:30.614Z,25.17
2022-12-03T15:06:58.756Z,30.48
2022-12-03T15:10:17.753Z,27.05
2022-12-03T15:13:41.025Z,28.95
2022-12-03T15:16:50.789Z,25.47
2022-12-03T15:20:14.524Z,28.17
2022-12-03T15:23:40.863Z,27.83
2022-12-03T15:27:05.432Z,30.65
2022-12-03T15:30:26.658Z,29.77
2022-12-03T15:33:48.498Z,27.57
2022-12-03T15:37:09.554Z,27.10
2022-12-03T15:40:35.833Z,27.25
2022-12-03T15:44:04.569Z,27.95
2022-12-03T15:47:24.769Z,29.40
2022-12-03T15:50:47.453Z,28.03
2022-12-03T15:53:55.879Z,28.40
2022-12-03T15:57:19.704Z,28.25
2022-12-03T16:00:35.909Z,28.17
2022-12-03T16:03:52.301Z,26.85
2022-12-03T16:07:17.683Z,28.67
2022-12-03T16:10:33.616Z,30.13
2022-12-03T16:13:37.543Z,30.13
2022-12-03T16:16:53.796Z,33.63
2022-12-03T16:20:23.086Z,31.30
2022-12-03T16:23:47.710Z,29.10
2022-12-03T16:26:58.682Z,30.40
2022-12-03T16:30:03.925Z,28.45
2022-12-03T16:33:10.521Z,31.60
2022-12-03T16:36:19.755Z,30.73
2022-12-03T16:39:36.818Z,33.13
2022-12-03T16:42:42.326Z,29.67
2022-12-03T16:46:21.754Z,32.13
2022-12-03T16:49:46.548Z,31.67
2022-12-03T16:53:03.878Z,30.52
2022-12-03T16:56:15.710Z,32.17
2022-12-03T16:59:27.018Z,29.83
2022-12-03T17:02:40.384Z,31.25
2022-12-03T17:05:44.999Z,35.63
2022-12-03T17:09:01.524Z,35.70
2022-12-03T17:13:08.317Z,34.63
2022-12-03T17:16:13.404Z,36.88
2022-12-03T17:19:25.955Z,34.92
2022-12-03T17:22:40.346Z,31.83
2022-12-03T17:25:57.660Z,32.53
2022-12-03T17:29:18.804Z,36.47
2022-12-03T17:32:35.575Z,35.65
2022-12-03T17:36:02.952Z,36.22
2022-12-03T17:39:19.538Z,37.22
2022-12-03T17:42:52.266Z,37.20
2022-12-03T17:46:20.103Z,39.07
2022-12-03T17:49:38.524Z,36.92
2022-12-03T17:52:58.684Z,37.88
2022-12-03T17:56:17.857Z,39.90
2022-12-03T17:59:41.436Z,40.50
2022-12-03T18:03:04.481Z,41.63
2022-12-03T18:06:30.544Z,40.33
2022-12-03T18:09:53.017Z,42.33
2022-12-03T18:13:14.227Z,44.17
2022-12-03T18:16:35.647Z,43.22
2022-12-03T18:19:55.715Z,40.33
2022-12-03T18:23:12.605Z,45.95
2022-12-03T18:26:27.101Z,46.60
2022-12-03T18:29:31.928Z,43.78
2022-12-03T18:32:54.097Z,43.30
2022-12-03T18:36:06.713Z,44.03
2022-12-03T18:39:38.018Z,44.03
2022-12-03T18:42:41.193Z,43.35
2022-12-03T18:45:56.717Z,45.88
2022-12-03T18:49:05.406Z,42.65
2022-12-03T18:52:14.876Z,44.03
2022-12-03T18:55:23.542Z,47.17
2022-12-03T18:58:45.300Z,48.38
2022-12-03T19:02:05.396Z,48.10
2022-12-03T19:05:29.434Z,45.10
2022-12-03T19:08:59.308Z,47.10
2022-12-03T19:12:15.011Z,47.58
2022-12-03T19:15:33.583Z,45.92
2022-12-03T19:18:55.430Z,47.92
2022-12-03T19:22:20.210Z,54.65
2022-12-03T19:25:41.307Z,52.70
2022-12-03T19:28:57.264Z,46.47
2022-12-03T19:32:24.376Z,44.15
2022-12-03T19:35:46.551Z,46.35
2022-12-03T19:39:10.218Z,46.17
2022-12-03T19:42:36.974Z,46.47
2022-12-03T19:45:55.583Z,43.15
2022-12-03T19:49:12.539Z,43.00
2022-12-03T19:52:26.279Z,45.97
2022-12-03T19:55:52.397Z,46.75
2022-12-03T19:59:14.572Z,44.43
2022-12-03T20:02:38.421Z,46.53
2022-12-03T20:05:46.041Z,47.88
2022-12-03T20:09:06.346Z,45.28
2022-12-03T20:12:14.083Z,47.17
2022-12-03T20:15:30.147Z,51.50
2022-12-03T20:18:53.142Z,47.45
2022-12-03T20:22:11.127Z,54.35
2022-12-03T20:25:37.066Z,53.22
2022-12-03T20:28:53.238Z,51.20
2022-12-03T20:32:21.111Z,70.40
2022-12-03T20:35:24.351Z,49.45
2022-12-03T20:38:53.030Z,52.05
2022-12-03T20:42:29.980Z,57.55
2022-12-03T20:45:55.038Z,54.60
2022-12-03T20:49:17.076Z,55.93
2022-12-03T20:52:36.256Z,54.92
2022-12-03T20:56:04.107Z,64.50
2022-12-03T20:59:23.672Z,60.50
2022-12-03T21:02:43.127Z,62.67
2022-12-03T21:06:07.249Z,55.73
2022-12-03T21:09:25.186Z,64.20
2022-12-03T21:12:48.321Z,65.05
2022-12-03T21:16:16.300Z,64.07
2022-12-03T21:19:39.290Z,57.92
2022-12-03T21:22:58.250Z,54.57
2022-12-03T21:26:18.366Z,55.95
2022-12-03T21:29:21.955Z,59.05
2022-12-03T21:32:28.195Z,61.55
2022-12-03T21:36:00.890Z,58.42
2022-12-03T21:39:32.852Z,61.27
2022-12-03T21:43:09.994Z,59.55
2022-12-03T21:47:10.569Z,60.70
2022-12-03T21:49:59.196Z,62.92
2022-12-03T21:53:03.101Z,61.83
2022-12-03T21:56:34.072Z,61.37
2022-12-03T21:59:58.061Z,59.35
2022-12-03T22:03:14.219Z,60.60
2022-12-03T22:06:25.660Z,62.55
2022-12-03T22:09:35.366Z,65.00
2022-12-03T22:13:00.118Z,61.87
2022-12-03T22:16:06.604Z,57.22
2022-12-03T22:19:10.650Z,58.97
2022-12-03T22:22:16.364Z,58.95
2022-12-03T22:25:23.984Z,58.50
2022-12-03T22:28:40.080Z,60.63
2022-12-03T22:31:46.158Z,53.55
2022-12-03T22:34:50.222Z,52.20
2022-12-03T22:38:04.594Z,49.22
2022-12-03T22:41:25.008Z,54.50
2022-12-03T22:44:44.714Z,54.07
2022-12-03T22:47:47.859Z,56.75
2022-12-03T22:50:57.313Z,53.63
2022-12-03T22:54:08.280Z,51.83
2022-12-03T22:57:30.139Z,52.90
2022-12-03T23:01:02.522Z,47.53
2022-12-03T23:04:38.689Z,51.20
2022-12-03T23:08:15.176Z,51.28
2022-12-03T23:11:48.095Z,50.58
2022-12-03T23:15:05.460Z,53.72
2022-12-03T23:18:31.527Z,50.97
2022-12-03T23:21:48.819Z,47.65
2022-12-03T23:25:08.666Z,45.67
2022-12-03T23:28:34.647Z,50.67
2022-12-03T23:32:05.610Z,52.50
2022-12-03T23:35:22.620Z,48.57
2022-12-03T23:38:43.536Z,49.38
2022-12-03T23:42:08.756Z,47.17
2022-12-03T23:45:27.539Z,47.83
2022-12-03T23:48:50.612Z,49.05
2022-12-03T23:52:12.763Z,46.87
2022-12-03T23:55:38.100Z,46.97
2022-12-03T23:58:56.623Z,52.78
